Dallas Love Field
KDAL : now visible

Aeroporto :











RITROVATECI SU...

 
LOGIN :

Iscrizione | Disclaimer

   EN    FR    IT 

 









Sommario :    VFR   VFR Marginale   IFR   IFR Intensivo   IFR Molto Intensivo
Visibilità : 
Base nubi : 
>= 8 km
>= 3000ft
5 / 8 km
1000 / 3000 ft
1500m / 5 km
500 / 1000 ft
800 / 1500m
200 / 500 ft
< 800m
< 200 ft
Simboli :   Temporali  Nebbia  Neve Forte  Precipitazioni Forti  Vento > 20 kt







- Altitudine del aeroporto : 487 ft
- Codice IATA : DAL


KDAL - Dallas Love Field

ULTIMO METAR :
  • 222053Z 16011KT 10SM SCT200 BKN250 OVC300 24/06 A3005 RMK AO2 SLP172 T02440061 56036

METARs OBSOLETI :
  • 221953Z 13008KT 10SM FEW190 BKN250 OVC300 24/06 A3009 RMK AO2 SLP183 T02440061
  • 221853Z 19007KT 160V240 10SM FEW150 BKN250 24/05 A3012 RMK AO2 SLP196 T02390050

TAF KDAL
Valido dal 22 a 21 ore il 23 a 18 ore UTC


222052Z 2221/2318 13008KT P6SM SCT150 BKN250
FM230800 17007KT P6SM VCSH BKN070 OVC120
FM231200 15009KT P6SM VCTS OVC050CB
TEMPO 2313/2317 BKN025CB
FIR KZFW / America del Nord



MetMap, La meteo Aeronautica in un colpo d'occhio ! - Copyright ORBIFLY Dicembre 2007 - Disclaimer

ORBIFLY MET'MAP TEAM :

Programmazione e sviluppo : Alexandra Zaïnal
Concezione e sviluppo : Baudouin d'Aumeries
Co-Programmazione e sviluppo : Marc-Olivier Méhu
Supporto tecnico e logistico : Manuel Goepfert
Aiuto per la traduzione : Arnaldo La Scala

Contatto : metmap@orbifly.com




FONTI E CREDITI :

   NOAA       Earth
Advisory